Time;durP1;ratioP1;P1;durP2;ratioP2;P2;SDS_P1;SDS_P2;PMS_P1;PMS_P2;Temp;Humidity;BMP_temperature;BMP_pressure;BME280_temperature;BME280_humidity;BME280_pressure;Samples;Min_cycle;Max_cycle;Signal;HPM_P1;HPM_P2
2023/01/21 00:01:32;;;;;;;39.53;31.13;;;2.50;88.10;;;;;;5013130;28;20650;-91
2023/01/21 00:03:58;;;;;;;39.23;32.30;;;2.60;88.10;;;;;;4995447;28;20183;-91
2023/01/21 00:06:24;;;;;;;34.83;30.43;;;2.60;88.20;;;;;;4995285;28;20189;-91
2023/01/21 00:08:49;;;;;;;44.40;31.00;;;2.60;88.20;;;;;;4995356;28;20185;-90
2023/01/21 00:11:15;;;;;;;36.57;30.33;;;2.60;88.20;;;;;;4995331;28;20525;-90
2023/01/21 00:13:42;;;;;;;34.83;29.90;;;2.60;88.20;;;;;;4995259;28;20524;-90
2023/01/21 00:16:08;;;;;;;37.93;30.53;;;2.50;88.00;;;;;;4995195;28;20576;-90
2023/01/21 00:18:34;;;;;;;36.33;30.83;;;2.60;88.10;;;;;;4995364;28;20528;-90
2023/01/21 00:21:00;;;;;;;36.87;30.37;;;2.60;88.00;;;;;;4997558;28;20241;-90
2023/01/21 00:23:25;;;;;;;34.80;30.10;;;2.50;87.90;;;;;;4998817;28;20181;-90
2023/01/21 00:25:59;;;;;;;39.77;31.33;;;2.50;87.70;;;;;;4998661;28;20199;-90
2023/01/21 00:28:30;;;;;;;36.13;31.13;;;2.50;87.70;;;;;;4998730;28;20235;-90
2023/01/21 00:31:01;;;;;;;38.50;32.33;;;2.40;87.80;;;;;;4999356;28;20590;-91
2023/01/21 00:33:27;;;;;;;34.87;31.17;;;2.40;88.00;;;;;;4998772;28;20165;-91
2023/01/21 00:36:01;;;;;;;33.87;30.27;;;2.30;88.10;;;;;;4998604;28;20221;-91
2023/01/21 00:38:27;;;;;;;33.73;29.43;;;2.30;88.40;;;;;;4998922;28;20166;-91
2023/01/21 00:41:01;;;;;;;39.37;31.17;;;2.30;88.60;;;;;;4999408;28;20200;-90
2023/01/21 00:43:28;;;;;;;39.27;32.03;;;2.20;88.80;;;;;;4998596;28;20173;-91
2023/01/21 00:45:53;;;;;;;36.37;32.57;;;2.20;89.00;;;;;;4998701;28;20247;-91
2023/01/21 00:48:19;;;;;;;38.20;30.60;;;2.20;89.10;;;;;;4998794;28;20180;-91
2023/01/21 00:50:44;;;;;;;36.53;31.87;;;2.20;89.30;;;;;;4998257;28;20208;-91
2023/01/21 00:53:10;;;;;;;41.00;33.20;;;2.10;89.40;;;;;;4998314;28;20177;-91
2023/01/21 00:55:35;;;;;;;41.23;34.90;;;2.20;89.60;;;;;;4998240;28;20193;-91
2023/01/21 00:58:01;;;;;;;38.60;32.43;;;2.20;89.70;;;;;;4998219;28;20193;-91
2023/01/21 01:00:26;;;;;;;39.87;33.30;;;2.10;89.80;;;;;;4998044;28;20181;-91
2023/01/21 01:02:52;;;;;;;35.00;31.20;;;2.20;89.90;;;;;;4998059;28;20663;-91
2023/01/21 01:05:18;;;;;;;40.03;32.27;;;2.20;90.00;;;;;;4998883;28;20205;-91
2023/01/21 01:07:46;;;;;;;40.23;33.87;;;2.20;90.00;;;;;;4997929;28;20177;-91
2023/01/21 01:10:11;;;;;;;40.37;33.67;;;2.20;90.10;;;;;;4997789;28;20584;-90
2023/01/21 01:12:37;;;;;;;39.50;32.37;;;2.30;90.10;;;;;;4997885;28;20177;-89
2023/01/21 01:15:03;;;;;;;36.77;32.83;;;2.30;90.10;;;;;;4997792;28;20197;-90
2023/01/21 01:17:28;;;;;;;39.73;32.43;;;2.30;90.10;;;;;;4997732;28;20178;-90
2023/01/21 01:19:54;;;;;;;35.87;29.37;;;2.30;90.10;;;;;;4997796;28;20675;-89
2023/01/21 01:22:20;;;;;;;38.07;30.17;;;2.30;90.10;;;;;;4997641;28;20210;-90
2023/01/21 01:24:45;;;;;;;35.57;31.60;;;2.30;90.00;;;;;;4997619;28;20310;-91
2023/01/21 01:27:11;;;;;;;37.27;31.27;;;2.20;90.00;;;;;;4997594;28;20178;-91
2023/01/21 01:29:37;;;;;;;38.33;30.97;;;2.20;90.00;;;;;;4997938;28;20243;-91
2023/01/21 01:32:03;;;;;;;34.50;29.70;;;2.10;89.90;;;;;;4997419;28;20726;-90
2023/01/21 01:34:29;;;;;;;35.53;30.80;;;2.10;89.90;;;;;;5015314;28;20261;-90
2023/01/21 01:36:54;;;;;;;36.57;30.87;;;2.00;89.80;;;;;;4997312;28;20233;-90
2023/01/21 01:39:20;;;;;;;40.03;31.30;;;2.00;89.70;;;;;;5015211;28;20644;-90
2023/01/21 01:41:45;;;;;;;40.13;30.10;;;1.90;89.70;;;;;;4997434;28;20178;-91
2023/01/21 01:44:48;;;;;;;34.50;30.23;;;1.80;89.60;;;;;;4997436;28;20189;-91
2023/01/21 01:47:14;;;;;;;33.27;29.63;;;1.70;89.50;;;;;;4998084;28;20177;-91
2023/01/21 01:49:41;;;;;;;34.93;29.23;;;1.70;89.60;;;;;;4997087;28;20202;-90
2023/01/21 01:52:09;;;;;;;38.40;30.33;;;1.70;89.60;;;;;;4997806;28;20177;-91
2023/01/21 01:54:40;;;;;;;36.80;30.13;;;1.70;89.60;;;;;;5014682;28;20608;-90
2023/01/21 01:57:09;;;;;;;37.20;30.23;;;1.60;89.40;;;;;;4997539;28;20256;-90
2023/01/21 01:59:35;;;;;;;35.37;31.20;;;1.50;89.30;;;;;;4997820;28;20182;-90
2023/01/21 02:02:07;;;;;;;37.23;30.73;;;1.50;89.40;;;;;;5014559;28;20179;-90
2023/01/21 02:04:38;;;;;;;35.13;31.43;;;1.50;89.40;;;;;;4996797;28;20187;-90
2023/01/21 02:07:04;;;;;;;38.40;29.97;;;1.50;89.40;;;;;;4996970;28;20198;-90
2023/01/21 02:09:29;;;;;;;35.20;30.93;;;1.50;89.40;;;;;;4996701;28;20625;-90
2023/01/21 02:11:57;;;;;;;36.53;32.60;;;1.40;89.20;;;;;;5014627;28;20542;-90
2023/01/21 02:14:23;;;;;;;42.47;32.77;;;1.20;89.10;;;;;;5014286;28;20268;-90
2023/01/21 02:17:21;;;;;;;37.80;32.43;;;1.10;89.10;;;;;;5014283;28;20694;-90
2023/01/21 02:20:08;;;;;;;36.63;31.80;;;1.20;89.30;;;;;;4996796;28;20177;-88
2023/01/21 02:23:00;;;;;;;37.53;31.37;;;1.20;89.30;;;;;;4996716;28;20185;-91
2023/01/21 02:25:56;;;;;;;37.17;31.50;;;1.20;89.20;;;;;;4959835;28;20297;-91
2023/01/21 02:28:52;;;;;;;37.93;30.77;;;1.20;89.20;;;;;;4996502;28;20173;-91
2023/01/21 02:31:39;;;;;;;33.77;29.53;;;1.20;89.20;;;;;;4996578;28;20177;-91
2023/01/21 02:34:29;;;;;;;39.17;28.93;;;1.20;89.10;;;;;;4996312;28;20182;-91
2023/01/21 02:37:08;;;;;;;35.53;30.97;;;1.10;89.10;;;;;;4996308;28;20216;-91
2023/01/21 02:39:59;;;;;;;35.87;29.40;;;1.10;89.00;;;;;;4996384;28;20184;-91
2023/01/21 02:42:45;;;;;;;31.03;27.57;;;1.10;89.00;;;;;;4996110;28;20170;-91
2023/01/21 02:45:40;;;;;;;33.50;29.07;;;1.10;88.90;;;;;;4996781;28;20292;-91
2023/01/21 02:48:13;;;;;;;34.23;29.23;;;1.10;88.90;;;;;;4997190;28;20173;-91
2023/01/21 02:50:46;;;;;;;34.67;29.50;;;1.00;88.80;;;;;;4997106;28;20232;-89
2023/01/21 02:53:24;;;;;;;33.30;29.73;;;1.00;88.80;;;;;;4997009;28;20260;-89
2023/01/21 02:55:50;;;;;;;35.63;29.90;;;1.00;88.70;;;;;;4996029;28;20284;-91
2023/01/21 02:58:20;;;;;;;35.93;29.53;;;1.00;88.60;;;;;;4996436;28;20211;-91
2023/01/21 03:01:13;;;;;;;37.13;30.90;;;0.90;88.60;;;;;;5013669;28;20169;-91
2023/01/21 03:03:45;;;;;;;38.10;33.47;;;1.00;88.60;;;;;;4996076;28;20610;-91
2023/01/21 03:06:17;;;;;;;43.13;33.73;;;0.90;88.30;;;;;;4995831;28;20193;-91
2023/01/21 03:09:05;;;;;;;41.97;32.67;;;0.70;88.40;;;;;;4996035;28;20192;-91
2023/01/21 03:11:31;;;;;;;37.53;33.00;;;0.60;88.70;;;;;;4996154;28;20177;-91
2023/01/21 03:17:17;;;;;;;39.37;33.33;;;0.50;89.10;;;;;;5014082;28;20161;-91
2023/01/21 03:19:58;;;;;;;44.37;34.73;;;0.60;89.20;;;;;;4995905;28;20170;-91
2023/01/21 03:22:28;;;;;;;43.83;33.50;;;0.60;89.40;;;;;;4995869;28;20181;-91
2023/01/21 03:24:56;;;;;;;43.67;32.70;;;0.70;89.50;;;;;;4995968;28;20204;-91
2023/01/21 03:27:25;;;;;;;43.20;33.43;;;0.80;89.70;;;;;;4995803;28;20663;-91
2023/01/21 03:29:56;;;;;;;44.20;36.63;;;0.80;89.70;;;;;;5013264;28;20280;-91
2023/01/21 03:32:22;;;;;;;46.50;35.77;;;0.90;89.90;;;;;;4995838;28;20165;-91
2023/01/21 03:34:55;;;;;;;45.80;34.80;;;1.00;89.90;;;;;;4995705;28;20188;-91
2023/01/21 03:37:32;;;;;;;43.67;35.33;;;1.00;89.90;;;;;;5013509;28;20180;-91
2023/01/21 03:40:19;;;;;;;46.60;36.63;;;1.00;89.90;;;;;;4996272;28;20189;-91
2023/01/21 03:42:49;;;;;;;44.50;36.07;;;1.00;90.00;;;;;;4995896;28;20260;-90
2023/01/21 03:45:17;;;;;;;43.30;34.83;;;1.00;90.00;;;;;;4995741;28;20238;-91
2023/01/21 03:47:51;;;;;;;46.17;37.53;;;0.90;90.00;;;;;;4995705;28;20212;-91
2023/01/21 03:50:22;;;;;;;45.67;37.73;;;0.90;90.00;;;;;;4995773;28;20294;-91
2023/01/21 03:52:48;;;;;;;44.23;37.50;;;0.90;90.20;;;;;;4995651;28;20166;-90
2023/01/21 03:55:15;;;;;;;50.87;35.90;;;0.90;90.30;;;;;;5014081;28;20196;-91
2023/01/21 03:57:41;;;;;;;49.00;38.60;;;0.90;90.40;;;;;;4999417;28;20177;-91
2023/01/21 04:00:07;;;;;;;50.23;40.10;;;0.90;90.50;;;;;;4999435;28;20177;-91
2023/01/21 04:02:33;;;;;;;51.67;39.77;;;0.90;90.60;;;;;;4999342;28;20728;-91
2023/01/21 04:04:58;;;;;;;52.33;40.73;;;0.90;90.70;;;;;;4999239;28;20208;-91
2023/01/21 04:07:24;;;;;;;47.67;39.57;;;1.00;90.80;;;;;;5016752;28;20173;-91
2023/01/21 04:09:49;;;;;;;52.77;40.83;;;1.00;90.90;;;;;;4999364;28;20201;-91
2023/01/21 04:12:15;;;;;;;50.13;41.83;;;1.00;91.00;;;;;;5000120;28;20181;-91
2023/01/21 04:14:41;;;;;;;57.37;44.13;;;0.90;91.00;;;;;;4999075;28;20213;-91
2023/01/21 04:17:07;;;;;;;56.10;46.27;;;0.90;91.10;;;;;;4999137;28;20221;-91
2023/01/21 04:19:32;;;;;;;58.80;43.93;;;0.80;91.20;;;;;;5016771;28;20184;-91
2023/01/21 04:21:58;;;;;;;72.77;46.03;;;0.70;91.40;;;;;;5017087;28;20598;-90
2023/01/21 04:24:24;;;;;;;61.67;46.90;;;0.60;91.60;;;;;;4998887;28;20181;-91
2023/01/21 04:26:49;;;;;;;63.07;47.90;;;0.60;91.80;;;;;;4998794;28;20204;-91
2023/01/21 04:29:16;;;;;;;57.53;45.37;;;0.50;92.10;;;;;;5016614;28;20203;-91
2023/01/21 04:31:42;;;;;;;69.20;46.00;;;0.50;92.30;;;;;;4998700;28;20171;-91
2023/01/21 04:34:07;;;;;;;83.87;48.40;;;0.40;92.50;;;;;;4998772;28;20173;-91
2023/01/21 04:36:33;;;;;;;65.90;49.77;;;0.40;92.70;;;;;;5016716;28;20694;-90
2023/01/21 04:38:58;;;;;;;76.37;51.17;;;0.30;92.80;;;;;;4998613;28;20185;-91
2023/01/21 04:41:24;;;;;;;75.33;50.27;;;0.30;93.00;;;;;;4998646;28;20171;-91
2023/01/21 04:43:49;;;;;;;79.97;51.03;;;0.40;93.20;;;;;;5016099;28;20187;-91
2023/01/21 04:46:15;;;;;;;100.33;50.43;;;0.40;93.30;;;;;;4998684;28;20198;-91
2023/01/21 04:48:41;;;;;;;113.13;52.43;;;0.30;93.40;;;;;;4998535;28;20184;-91
2023/01/21 04:51:06;;;;;;;112.77;54.97;;;0.40;93.60;;;;;;4998530;28;20192;-91
2023/01/21 04:53:32;;;;;;;96.10;52.60;;;0.40;93.70;;;;;;4998474;28;20581;-91
2023/01/21 04:55:57;;;;;;;101.03;52.80;;;0.40;93.80;;;;;;4998300;28;20208;-91
2023/01/21 04:58:23;;;;;;;119.33;55.77;;;0.40;93.90;;;;;;5015895;28;20183;-91
2023/01/21 05:00:49;;;;;;;148.17;57.90;;;0.40;94.00;;;;;;4998086;28;20215;-91
2023/01/21 05:03:14;;;;;;;119.93;55.17;;;0.40;94.00;;;;;;4998144;28;20217;-91
2023/01/21 05:05:40;;;;;;;112.90;58.17;;;0.40;94.10;;;;;;4997633;28;20233;-91
2023/01/21 05:08:06;;;;;;;124.50;59.63;;;0.50;94.20;;;;;;4998097;28;20184;-91
2023/01/21 05:10:31;;;;;;;101.53;61.03;;;0.50;94.20;;;;;;4998290;28;20187;-91
2023/01/21 05:12:58;;;;;;;121.90;60.87;;;0.50;94.30;;;;;;4997981;28;20204;-91
2023/01/21 05:15:23;;;;;;;130.30;61.50;;;0.50;94.30;;;;;;4998254;28;20690;-91
2023/01/21 05:17:49;;;;;;;102.70;61.73;;;0.50;94.30;;;;;;5015799;28;20186;-91
2023/01/21 05:20:15;;;;;;;125.20;61.50;;;0.60;94.40;;;;;;4997710;28;20197;-91
2023/01/21 05:22:40;;;;;;;105.13;59.67;;;0.60;94.40;;;;;;4997898;28;20663;-91
2023/01/21 05:25:06;;;;;;;109.27;64.47;;;0.60;94.50;;;;;;4998124;28;20285;-91
2023/01/21 05:27:32;;;;;;;102.97;61.03;;;0.60;94.50;;;;;;4998533;28;20176;-91
2023/01/21 05:29:57;;;;;;;76.47;57.67;;;0.60;94.50;;;;;;5015511;28;20201;-91
2023/01/21 05:32:23;;;;;;;88.93;63.90;;;0.60;94.50;;;;;;4997697;28;20216;-91
2023/01/21 05:34:49;;;;;;;88.77;64.63;;;0.70;94.60;;;;;;4997515;28;20617;-91
2023/01/21 05:37:14;;;;;;;84.10;66.57;;;0.70;94.60;;;;;;5015340;28;20279;-91
2023/01/21 05:39:40;;;;;;;91.77;67.03;;;0.60;94.60;;;;;;4997511;28;20201;-91
2023/01/21 05:42:05;;;;;;;99.13;67.27;;;0.60;94.60;;;;;;5014890;28;20170;-91
2023/01/21 05:44:31;;;;;;;119.37;68.83;;;0.70;94.60;;;;;;4997269;28;20554;-91
2023/01/21 05:46:56;;;;;;;117.20;64.77;;;0.60;94.60;;;;;;4998309;28;20655;-91
2023/01/21 05:49:22;;;;;;;86.53;64.13;;;0.70;94.70;;;;;;4997457;28;20234;-91
2023/01/21 05:51:47;;;;;;;72.10;62.47;;;0.60;94.70;;;;;;4997235;28;20178;-91
2023/01/21 05:54:13;;;;;;;72.80;64.90;;;0.60;94.70;;;;;;4997216;28;20188;-91
2023/01/21 05:56:38;;;;;;;78.17;66.07;;;0.60;94.70;;;;;;4997254;28;20208;-91
2023/01/21 05:59:04;;;;;;;74.37;66.67;;;0.60;94.70;;;;;;4997362;28;20184;-91
2023/01/21 06:01:29;;;;;;;89.10;66.33;;;0.60;94.70;;;;;;4997296;28;20588;-91
2023/01/21 06:03:55;;;;;;;99.97;67.43;;;0.60;94.70;;;;;;5014445;28;20528;-91
2023/01/21 06:06:20;;;;;;;82.70;70.30;;;0.60;94.70;;;;;;4996847;28;20227;-91
2023/01/21 06:08:46;;;;;;;79.87;70.37;;;0.60;94.70;;;;;;4996933;28;20180;-91
2023/01/21 06:11:11;;;;;;;88.23;64.50;;;0.50;94.70;;;;;;4996928;28;20182;-91
2023/01/21 06:13:37;;;;;;;79.53;64.17;;;0.50;94.70;;;;;;4996915;28;20646;-91
2023/01/21 06:16:03;;;;;;;91.50;63.50;;;0.40;94.70;;;;;;5014313;28;20214;-91
2023/01/21 06:18:28;;;;;;;181.87;70.80;;;0.40;94.80;;;;;;4996047;28;20246;-90
2023/01/21 06:20:57;;;;;;;106.80;66.87;;;0.40;94.80;;;;;;5014264;28;20243;-91
2023/01/21 06:23:22;;;;;;;108.93;67.93;;;0.30;94.80;;;;;;4996829;28;20174;-91
2023/01/21 06:25:48;;;;;;;180.57;71.30;;;0.30;94.80;;;;;;4996634;28;20566;-91
2023/01/21 06:28:13;;;;;;;187.13;67.87;;;0.30;94.80;;;;;;4996624;28;20179;-91
2023/01/21 06:30:39;;;;;;;130.90;66.43;;;0.30;94.80;;;;;;4996632;28;20231;-91
2023/01/21 06:33:04;;;;;;;187.73;64.20;;;0.30;94.90;;;;;;4996626;28;20184;-91
2023/01/21 06:35:31;;;;;;;154.90;69.40;;;0.20;94.90;;;;;;4996476;28;20215;-91
2023/01/21 06:37:56;;;;;;;160.83;65.97;;;0.10;94.90;;;;;;5014218;28;20262;-91
2023/01/21 06:40:22;;;;;;;146.93;64.67;;;0.10;94.90;;;;;;4996330;28;20330;-91
2023/01/21 06:42:48;;;;;;;190.53;68.30;;;0.00;94.90;;;;;;4996486;28;20665;-91
2023/01/21 06:45:14;;;;;;;144.50;69.23;;;0.00;94.90;;;;;;5014032;28;20207;-91
2023/01/21 06:47:44;;;;;;;132.63;70.83;;;0.00;95.00;;;;;;4996629;28;20174;-91
2023/01/21 06:50:11;;;;;;;107.80;64.30;;;0.00;95.00;;;;;;4996776;28;20227;-91
2023/01/21 06:52:36;;;;;;;88.87;62.33;;;0.00;95.00;;;;;;4996267;28;20182;-91
2023/01/21 06:55:02;;;;;;;102.40;69.97;;;0.00;95.10;;;;;;4996224;28;20294;-91
2023/01/21 06:57:29;;;;;;;87.87;67.83;;;0.00;95.10;;;;;;4996541;28;20184;-91
2023/01/21 06:59:55;;;;;;;70.40;63.97;;;0.00;95.20;;;;;;5013622;28;20196;-91
2023/01/21 07:02:20;;;;;;;71.40;64.00;;;0.00;95.20;;;;;;4996136;28;20179;-91
2023/01/21 07:04:47;;;;;;;98.93;71.77;;;0.00;95.20;;;;;;4996168;28;20638;-91
2023/01/21 07:07:13;;;;;;;170.47;70.93;;;0.00;95.30;;;;;;5013596;28;20670;-91
2023/01/21 07:09:38;;;;;;;171.40;75.00;;;0.00;95.30;;;;;;4996098;28;20386;-91
2023/01/21 07:12:04;;;;;;;128.87;73.80;;;0.00;95.30;;;;;;4996075;28;20552;-91
2023/01/21 07:14:30;;;;;;;117.20;73.33;;;0.10;95.40;;;;;;4995930;28;20186;-91
2023/01/21 07:16:55;;;;;;;131.53;72.87;;;0.10;95.40;;;;;;4996363;28;20180;-91
2023/01/21 07:19:21;;;;;;;162.47;71.53;;;0.10;95.40;;;;;;4996017;28;20192;-91
2023/01/21 07:21:46;;;;;;;122.77;72.87;;;0.10;95.40;;;;;;5013652;28;20589;-91
2023/01/21 07:24:12;;;;;;;152.93;75.80;;;0.10;95.40;;;;;;4996056;28;20263;-91
2023/01/21 07:26:37;;;;;;;166.73;74.70;;;0.10;95.40;;;;;;5013730;28;20315;-91
2023/01/21 07:29:04;;;;;;;158.73;69.37;;;0.10;95.50;;;;;;4996561;28;20235;-91
2023/01/21 07:31:30;;;;;;;168.70;74.17;;;0.20;95.50;;;;;;5017432;28;20570;-91
2023/01/21 07:33:56;;;;;;;152.60;73.87;;;0.20;95.50;;;;;;5017380;28;20181;-91
2023/01/21 07:36:21;;;;;;;130.50;73.90;;;0.20;95.50;;;;;;4999619;28;20214;-91
2023/01/21 07:38:47;;;;;;;164.83;71.47;;;0.20;95.50;;;;;;4999843;28;20183;-91
2023/01/21 07:41:12;;;;;;;155.33;77.13;;;0.20;95.50;;;;;;5017165;28;20293;-91
2023/01/21 07:43:38;;;;;;;123.07;75.13;;;0.10;95.50;;;;;;5017176;28;20310;-91
2023/01/21 07:46:03;;;;;;;158.27;76.40;;;0.20;95.50;;;;;;4999667;28;20330;-91
2023/01/21 07:48:29;;;;;;;191.43;76.70;;;0.20;95.60;;;;;;4999441;28;20179;-91
2023/01/21 07:50:58;;;;;;;188.97;77.60;;;0.20;95.60;;;;;;4999462;28;20192;-91
2023/01/21 07:53:24;;;;;;;213.03;74.70;;;0.20;95.60;;;;;;4999639;28;20205;-91
2023/01/21 07:55:50;;;;;;;207.57;76.37;;;0.20;95.60;;;;;;5000014;28;20640;-91
2023/01/21 07:58:15;;;;;;;236.03;77.23;;;0.30;95.60;;;;;;5000222;28;20214;-91
2023/01/21 08:00:41;;;;;;;231.73;80.63;;;0.30;95.60;;;;;;4999238;28;20217;-91
2023/01/21 08:03:06;;;;;;;205.40;82.07;;;0.30;95.60;;;;;;4999217;28;20180;-91
2023/01/21 08:05:32;;;;;;;240.90;78.77;;;0.30;95.60;;;;;;4999224;28;20203;-91
2023/01/21 08:07:57;;;;;;;218.90;83.67;;;0.30;95.70;;;;;;4999171;28;20182;-91
2023/01/21 08:10:23;;;;;;;206.07;88.90;;;0.30;95.70;;;;;;4999261;28;20186;-91
2023/01/21 08:12:49;;;;;;;155.87;83.77;;;0.30;95.70;;;;;;5016721;28;20234;-91
2023/01/21 08:15:15;;;;;;;174.50;85.73;;;0.30;95.70;;;;;;4999015;28;20620;-91
2023/01/21 08:17:41;;;;;;;191.33;84.80;;;0.30;95.70;;;;;;5017070;28;20180;-91
2023/01/21 08:20:08;;;;;;;214.40;85.73;;;0.30;95.70;;;;;;4998936;28;20769;-91
2023/01/21 08:22:34;;;;;;;202.47;84.80;;;0.30;95.70;;;;;;4999398;28;20246;-91
2023/01/21 08:25:00;;;;;;;171.23;88.77;;;0.30;95.70;;;;;;4998901;28;20617;-91
2023/01/21 08:27:25;;;;;;;166.00;88.60;;;0.30;95.70;;;;;;5016453;28;20175;-91
2023/01/21 08:29:51;;;;;;;121.87;92.77;;;0.30;95.70;;;;;;4998747;28;20275;-91
2023/01/21 08:32:17;;;;;;;136.67;89.83;;;0.30;95.70;;;;;;4998796;28;20219;-91
2023/01/21 08:34:42;;;;;;;139.67;88.67;;;0.40;95.80;;;;;;5016213;28;20380;-91
2023/01/21 08:37:08;;;;;;;104.40;93.73;;;0.40;95.80;;;;;;4999004;28;20183;-91
2023/01/21 08:39:33;;;;;;;148.10;94.43;;;0.40;95.70;;;;;;5016103;28;20207;-90
2023/01/21 08:41:59;;;;;;;120.70;90.20;;;0.40;95.80;;;;;;5015706;28;20179;-91
2023/01/21 08:44:24;;;;;;;113.43;86.87;;;0.40;95.80;;;;;;5016105;28;20172;-91
2023/01/21 08:46:50;;;;;;;99.67;90.23;;;0.40;95.80;;;;;;5016000;28;20230;-91
2023/01/21 08:49:15;;;;;;;107.60;98.07;;;0.40;95.80;;;;;;5015980;28;20248;-91
2023/01/21 08:51:41;;;;;;;164.13;95.63;;;0.40;95.80;;;;;;4998415;28;20274;-91
2023/01/21 08:54:07;;;;;;;248.20;96.57;;;0.50;95.80;;;;;;4998412;28;20216;-91
2023/01/21 08:56:33;;;;;;;129.33;96.53;;;0.50;95.80;;;;;;4998350;28;20208;-90
2023/01/21 08:58:59;;;;;;;104.43;94.87;;;0.40;95.80;;;;;;5015834;28;20184;-90
2023/01/21 09:01:25;;;;;;;176.10;101.47;;;0.30;95.80;;;;;;4998288;28;20200;-93
2023/01/21 09:03:59;;;;;;;176.70;105.60;;;0.30;95.80;;;;;;4998542;28;20180;-91
2023/01/21 09:06:26;;;;;;;179.43;107.80;;;0.30;95.80;;;;;;4998943;28;20528;-91
2023/01/21 09:08:52;;;;;;;121.47;110.20;;;0.20;95.70;;;;;;4998011;28;20246;-91
2023/01/21 09:11:18;;;;;;;118.90;107.20;;;0.20;95.70;;;;;;4998210;28;20202;-91
2023/01/21 09:13:44;;;;;;;151.20;101.57;;;0.20;95.80;;;;;;4998032;28;20184;-91
2023/01/21 09:16:12;;;;;;;143.63;97.20;;;0.30;95.80;;;;;;4997929;28;20230;-91
2023/01/21 09:18:38;;;;;;;137.17;106.10;;;0.30;95.80;;;;;;4997955;28;20180;-91
2023/01/21 09:21:04;;;;;;;124.93;104.70;;;0.40;95.80;;;;;;4997907;28;20230;-91
2023/01/21 09:23:33;;;;;;;122.83;104.03;;;0.40;95.80;;;;;;4997954;28;20266;-91
2023/01/21 09:26:15;;;;;;;112.60;103.63;;;0.30;95.80;;;;;;4998352;28;20291;-91
2023/01/21 09:28:43;;;;;;;110.47;100.70;;;0.40;95.80;;;;;;4997771;28;20202;-91
2023/01/21 09:31:22;;;;;;;115.60;104.67;;;0.40;95.80;;;;;;4997712;28;20263;-91
2023/01/21 09:33:54;;;;;;;117.63;105.97;;;0.40;95.80;;;;;;4997661;28;20183;-91
2023/01/21 09:36:23;;;;;;;128.53;114.53;;;0.50;95.80;;;;;;4998224;28;20227;-92
2023/01/21 09:38:49;;;;;;;146.30;114.77;;;0.50;95.80;;;;;;4997625;28;20185;-91
2023/01/21 09:41:21;;;;;;;129.47;115.30;;;0.40;95.70;;;;;;4997542;28;20212;-92
2023/01/21 09:43:57;;;;;;;170.60;117.57;;;0.40;95.80;;;;;;5014955;28;20180;-91
2023/01/21 09:46:47;;;;;;;188.13;117.27;;;0.40;95.80;;;;;;4997356;28;20200;-91
2023/01/21 09:49:23;;;;;;;139.97;111.83;;;0.40;95.80;;;;;;5034558;23;20264;-93
2023/01/21 09:52:09;;;;;;;127.87;115.07;;;0.40;95.80;;;;;;5017994;28;20162;-94
2023/01/21 09:54:37;;;;;;;131.60;113.40;;;0.50;95.80;;;;;;5068911;23;20236;-93
2023/01/21 09:57:09;;;;;;;151.13;113.77;;;0.50;95.80;;;;;;5014268;28;20657;-92
2023/01/21 10:00:05;;;;;;;168.87;114.13;;;0.60;95.80;;;;;;4996695;28;20206;-91
2023/01/21 10:03:05;;;;;;;152.47;113.97;;;0.60;95.80;;;;;;4996225;28;20536;-91
2023/01/21 10:06:03;;;;;;;149.87;111.63;;;0.50;95.80;;;;;;4995687;28;20209;-92
2023/01/21 10:09:06;;;;;;;116.47;105.63;;;0.50;95.80;;;;;;4996983;28;20211;-89
2023/01/21 10:11:47;;;;;;;154.80;114.77;;;0.60;95.80;;;;;;5002988;28;20182;-93
2023/01/21 10:14:21;;;;;;;175.53;112.83;;;0.50;95.80;;;;;;5007875;28;20165;-89
2023/01/21 10:17:14;;;;;;;130.17;110.07;;;0.60;95.80;;;;;;4994899;28;20171;-90
2023/01/21 10:20:04;;;;;;;131.70;118.23;;;0.60;95.80;;;;;;4994289;28;20276;-91
2023/01/21 10:22:30;;;;;;;125.47;113.13;;;0.70;95.90;;;;;;5016241;28;20190;-91
2023/01/21 10:25:12;;;;;;;125.20;114.17;;;0.70;95.80;;;;;;5000650;28;20213;-91
2023/01/21 10:27:41;;;;;;;119.67;108.87;;;0.80;95.80;;;;;;5007365;28;20178;-92
2023/01/21 10:30:33;;;;;;;122.53;112.30;;;0.90;95.90;;;;;;5009402;28;20188;-93
2023/01/21 10:33:10;;;;;;;124.03;113.67;;;0.90;95.80;;;;;;5010784;28;20188;-92
2023/01/21 10:35:50;;;;;;;125.50;115.37;;;0.90;95.80;;;;;;5009309;28;20268;-92
2023/01/21 10:38:45;;;;;;;120.07;109.83;;;0.90;95.80;;;;;;5008700;28;20198;-92
2023/01/21 10:41:47;;;;;;;123.87;113.30;;;0.90;95.80;;;;;;5000031;28;20241;-91
2023/01/21 10:44:22;;;;;;;123.70;112.93;;;0.90;95.90;;;;;;5005809;28;20195;-92
2023/01/21 10:47:00;;;;;;;128.37;117.17;;;1.00;95.90;;;;;;5005296;28;20177;-93
2023/01/21 10:50:12;;;;;;;125.83;115.37;;;1.00;95.90;;;;;;5006107;28;20208;-92
2023/01/21 10:52:51;;;;;;;125.63;114.70;;;1.10;95.80;;;;;;4977294;28;20189;-92
2023/01/21 10:55:49;;;;;;;132.47;120.53;;;1.10;95.90;;;;;;5008091;28;20196;-92
2023/01/21 10:58:21;;;;;;;126.30;115.20;;;1.10;95.80;;;;;;5009664;28;20202;-91
2023/01/21 11:00:49;;;;;;;129.17;117.23;;;1.20;95.80;;;;;;5009665;28;20194;-92
2023/01/21 11:03:34;;;;;;;128.33;116.20;;;1.20;95.80;;;;;;5010289;28;20220;-91
2023/01/21 11:06:03;;;;;;;125.23;113.77;;;1.20;95.80;;;;;;5008717;28;20162;-92
2023/01/21 11:08:29;;;;;;;132.50;120.53;;;1.20;95.80;;;;;;5009205;28;20247;-92
2023/01/21 11:10:55;;;;;;;127.50;115.57;;;1.30;95.80;;;;;;5012111;28;20177;-92
2023/01/21 11:13:21;;;;;;;131.43;119.47;;;1.30;95.80;;;;;;5007562;28;20182;-92
2023/01/21 11:15:52;;;;;;;127.07;115.60;;;1.40;95.90;;;;;;4998573;28;20185;-91
2023/01/21 11:18:27;;;;;;;126.70;115.10;;;1.40;95.80;;;;;;5001238;28;20209;-92
2023/01/21 11:20:56;;;;;;;134.37;122.63;;;1.30;95.80;;;;;;5008093;28;20201;-91
2023/01/21 11:23:24;;;;;;;126.63;115.13;;;1.30;95.80;;;;;;5006003;28;20232;-91
2023/01/21 11:25:50;;;;;;;133.07;120.30;;;1.30;95.80;;;;;;5001512;28;20246;-91
2023/01/21 11:28:29;;;;;;;127.70;115.97;;;1.40;95.80;;;;;;5002039;28;20201;-91
2023/01/21 11:31:09;;;;;;;128.47;117.07;;;1.40;95.80;;;;;;4994852;28;20242;-92
2023/01/21 11:33:36;;;;;;;125.13;113.87;;;1.40;95.70;;;;;;5001104;28;20268;-92
2023/01/21 11:36:31;;;;;;;123.60;112.50;;;1.50;95.80;;;;;;5001390;28;20738;-91
2023/01/21 11:39:04;;;;;;;131.87;119.37;;;1.40;95.70;;;;;;4987075;28;20216;-92
2023/01/21 11:41:30;;;;;;;127.20;115.60;;;1.50;95.70;;;;;;5002258;28;20276;-91
2023/01/21 11:44:16;;;;;;;119.70;108.73;;;1.60;95.70;;;;;;5000812;28;20178;-90
2023/01/21 11:46:42;;;;;;;120.30;108.83;;;1.50;95.60;;;;;;5000683;28;20212;-91
2023/01/21 11:49:08;;;;;;;117.90;106.53;;;1.40;95.50;;;;;;4995990;28;20683;-91
2023/01/21 11:51:38;;;;;;;117.13;106.03;;;1.40;95.50;;;;;;4997184;28;20189;-91
2023/01/21 11:54:21;;;;;;;116.77;105.93;;;1.40;95.50;;;;;;4999112;28;20201;-90
2023/01/21 11:57:01;;;;;;;109.17;98.40;;;1.60;95.40;;;;;;4993510;28;20185;-90
2023/01/21 11:59:32;;;;;;;105.97;95.43;;;1.80;95.50;;;;;;4993942;28;20245;-89
2023/01/21 12:02:26;;;;;;;101.87;92.27;;;1.90;95.40;;;;;;4994742;28;20185;-90
2023/01/21 12:05:08;;;;;;;101.10;90.63;;;2.00;95.30;;;;;;4992855;28;20197;-89
2023/01/21 12:07:37;;;;;;;95.13;85.57;;;2.00;95.20;;;;;;4993241;28;20216;-89
2023/01/21 12:10:27;;;;;;;96.13;86.13;;;2.00;95.10;;;;;;4995374;28;20260;-91
2023/01/21 12:13:16;;;;;;;92.30;82.80;;;2.00;95.00;;;;;;4993359;28;20265;-90
2023/01/21 12:15:51;;;;;;;95.40;85.53;;;2.10;95.00;;;;;;4992955;28;20663;-90
2023/01/21 12:18:24;;;;;;;100.83;90.83;;;2.30;94.90;;;;;;4997105;28;20236;-91
2023/01/21 12:21:12;;;;;;;100.53;90.53;;;2.50;94.90;;;;;;4998946;28;20296;-91
2023/01/21 12:24:05;;;;;;;100.33;90.27;;;2.60;94.80;;;;;;5005311;28;20177;-92
2023/01/21 12:26:44;;;;;;;100.63;90.63;;;2.60;94.70;;;;;;5002569;28;20652;-92
2023/01/21 12:29:30;;;;;;;96.73;87.03;;;2.80;94.70;;;;;;5006013;28;20202;-92
2023/01/21 12:32:10;;;;;;;93.90;84.63;;;2.80;94.50;;;;;;4991828;28;20674;-91
2023/01/21 12:35:01;;;;;;;93.43;84.23;;;2.90;94.50;;;;;;5007960;28;20185;-91
2023/01/21 12:37:29;;;;;;;91.97;83.13;;;3.00;94.40;;;;;;5005381;28;20211;-92
2023/01/21 12:39:57;;;;;;;88.23;79.57;;;3.20;94.30;;;;;;5004558;28;20206;-91
2023/01/21 12:42:36;;;;;;;86.10;77.60;;;3.40;94.20;;;;;;5005277;28;20181;-91
2023/01/21 12:45:34;;;;;;;77.97;70.40;;;3.50;94.00;;;;;;5006063;28;20212;-90
2023/01/21 12:48:13;;;;;;;68.53;61.73;;;3.60;93.80;;;;;;4970318;28;20215;-90
2023/01/21 12:50:43;;;;;;;70.90;63.80;;;3.60;93.50;;;;;;5000333;28;20251;-91
2023/01/21 12:53:09;;;;;;;64.93;58.47;;;3.60;93.30;;;;;;5001811;28;20188;-90